sensor_id;sensor_type;location;lat;lon;timestamp;P1;durP1;ratioP1;P2;durP2;ratioP2
12271;SDS011;6198;51.446;6.698;2023-05-10T00:00:26;39.60;;;25.33;;
12271;SDS011;6198;51.446;6.698;2023-05-10T00:02:52;42.47;;;25.87;;
12271;SDS011;6198;51.446;6.698;2023-05-10T00:05:18;36.87;;;24.27;;
12271;SDS011;6198;51.446;6.698;2023-05-10T00:07:44;31.87;;;21.40;;
12271;SDS011;6198;51.446;6.698;2023-05-10T00:10:10;34.67;;;20.50;;
12271;SDS011;6198;51.446;6.698;2023-05-10T00:12:36;31.47;;;20.77;;
12271;SDS011;6198;51.446;6.698;2023-05-10T00:15:02;37.27;;;21.90;;
12271;SDS011;6198;51.446;6.698;2023-05-10T00:17:28;32.13;;;19.87;;
12271;SDS011;6198;51.446;6.698;2023-05-10T00:19:54;32.07;;;20.87;;
12271;SDS011;6198;51.446;6.698;2023-05-10T00:22:20;33.80;;;20.70;;
12271;SDS011;6198;51.446;6.698;2023-05-10T00:24:46;31.90;;;21.00;;
12271;SDS011;6198;51.446;6.698;2023-05-10T00:27:12;34.10;;;20.87;;
12271;SDS011;6198;51.446;6.698;2023-05-10T00:29:38;31.63;;;20.87;;
12271;SDS011;6198;51.446;6.698;2023-05-10T00:32:04;35.77;;;21.17;;
12271;SDS011;6198;51.446;6.698;2023-05-10T00:34:30;32.30;;;21.90;;
12271;SDS011;6198;51.446;6.698;2023-05-10T00:36:56;35.47;;;20.23;;
12271;SDS011;6198;51.446;6.698;2023-05-10T00:39:22;34.93;;;21.77;;
12271;SDS011;6198;51.446;6.698;2023-05-10T00:41:48;35.00;;;22.63;;
12271;SDS011;6198;51.446;6.698;2023-05-10T00:44:14;37.47;;;22.47;;
12271;SDS011;6198;51.446;6.698;2023-05-10T00:46:40;36.67;;;21.93;;
12271;SDS011;6198;51.446;6.698;2023-05-10T00:49:06;40.87;;;24.90;;
12271;SDS011;6198;51.446;6.698;2023-05-10T00:51:32;40.80;;;24.67;;
12271;SDS011;6198;51.446;6.698;2023-05-10T00:53:58;43.43;;;24.83;;
12271;SDS011;6198;51.446;6.698;2023-05-10T00:56:25;40.30;;;25.73;;
12271;SDS011;6198;51.446;6.698;2023-05-10T00:58:51;42.53;;;26.93;;
12271;SDS011;6198;51.446;6.698;2023-05-10T01:01:17;41.53;;;24.53;;
12271;SDS011;6198;51.446;6.698;2023-05-10T01:03:43;39.07;;;24.37;;
12271;SDS011;6198;51.446;6.698;2023-05-10T01:06:09;40.63;;;24.60;;
12271;SDS011;6198;51.446;6.698;2023-05-10T01:08:35;40.10;;;24.07;;
12271;SDS011;6198;51.446;6.698;2023-05-10T01:11:01;37.73;;;24.63;;
12271;SDS011;6198;51.446;6.698;2023-05-10T01:13:37;39.27;;;23.13;;
12271;SDS011;6198;51.446;6.698;2023-05-10T01:16:04;40.23;;;24.60;;
12271;SDS011;6198;51.446;6.698;2023-05-10T01:18:32;35.40;;;22.90;;
12271;SDS011;6198;51.446;6.698;2023-05-10T01:21:02;36.17;;;23.57;;
12271;SDS011;6198;51.446;6.698;2023-05-10T01:31:06;36.47;;;23.07;;
12271;SDS011;6198;51.446;6.698;2023-05-10T01:38:53;37.80;;;24.13;;
12271;SDS011;6198;51.446;6.698;2023-05-10T01:44:04;41.07;;;24.13;;
12271;SDS011;6198;51.446;6.698;2023-05-10T01:46:35;40.37;;;25.07;;
12271;SDS011;6198;51.446;6.698;2023-05-10T01:49:02;40.50;;;25.00;;
12271;SDS011;6198;51.446;6.698;2023-05-10T01:51:31;44.53;;;26.27;;
12271;SDS011;6198;51.446;6.698;2023-05-10T01:54:02;40.03;;;25.70;;
12271;SDS011;6198;51.446;6.698;2023-05-10T01:56:30;45.33;;;27.33;;
12271;SDS011;6198;51.446;6.698;2023-05-10T01:58:57;44.23;;;26.73;;
12271;SDS011;6198;51.446;6.698;2023-05-10T02:01:24;47.90;;;27.33;;
12271;SDS011;6198;51.446;6.698;2023-05-10T02:03:51;46.57;;;27.77;;
12271;SDS011;6198;51.446;6.698;2023-05-10T02:06:18;44.57;;;27.87;;
12271;SDS011;6198;51.446;6.698;2023-05-10T02:08:46;52.93;;;28.87;;
12271;SDS011;6198;51.446;6.698;2023-05-10T02:11:13;49.10;;;28.67;;
12271;SDS011;6198;51.446;6.698;2023-05-10T02:13:39;49.33;;;28.27;;
12271;SDS011;6198;51.446;6.698;2023-05-10T02:16:05;52.40;;;29.80;;
12271;SDS011;6198;51.446;6.698;2023-05-10T02:18:32;51.17;;;28.97;;
12271;SDS011;6198;51.446;6.698;2023-05-10T02:20:59;46.43;;;28.33;;
12271;SDS011;6198;51.446;6.698;2023-05-10T02:23:25;49.90;;;28.30;;
12271;SDS011;6198;51.446;6.698;2023-05-10T02:25:51;44.03;;;28.50;;
12271;SDS011;6198;51.446;6.698;2023-05-10T02:28:18;47.40;;;28.47;;
12271;SDS011;6198;51.446;6.698;2023-05-10T02:30:45;48.73;;;28.93;;
12271;SDS011;6198;51.446;6.698;2023-05-10T02:33:12;49.60;;;29.03;;
12271;SDS011;6198;51.446;6.698;2023-05-10T02:35:39;55.37;;;30.50;;
12271;SDS011;6198;51.446;6.698;2023-05-10T02:38:05;53.77;;;29.70;;
12271;SDS011;6198;51.446;6.698;2023-05-10T02:40:31;49.40;;;27.70;;
12271;SDS011;6198;51.446;6.698;2023-05-10T02:42:58;48.43;;;28.67;;
12271;SDS011;6198;51.446;6.698;2023-05-10T02:45:26;51.27;;;28.63;;
12271;SDS011;6198;51.446;6.698;2023-05-10T02:47:53;53.77;;;29.40;;
12271;SDS011;6198;51.446;6.698;2023-05-10T02:50:19;50.17;;;29.00;;
12271;SDS011;6198;51.446;6.698;2023-05-10T02:52:47;52.57;;;29.10;;
12271;SDS011;6198;51.446;6.698;2023-05-10T02:55:14;52.27;;;28.90;;
12271;SDS011;6198;51.446;6.698;2023-05-10T02:57:41;51.20;;;29.93;;
12271;SDS011;6198;51.446;6.698;2023-05-10T03:00:09;52.77;;;28.13;;
12271;SDS011;6198;51.446;6.698;2023-05-10T03:02:35;52.20;;;28.77;;
12271;SDS011;6198;51.446;6.698;2023-05-10T03:05:04;48.83;;;27.60;;
12271;SDS011;6198;51.446;6.698;2023-05-10T03:07:30;53.60;;;28.73;;
12271;SDS011;6198;51.446;6.698;2023-05-10T03:09:56;49.83;;;27.03;;
12271;SDS011;6198;51.446;6.698;2023-05-10T03:15:24;49.50;;;27.63;;
12271;SDS011;6198;51.446;6.698;2023-05-10T03:22:57;45.73;;;25.90;;
12271;SDS011;6198;51.446;6.698;2023-05-10T03:25:26;46.00;;;26.43;;
12271;SDS011;6198;51.446;6.698;2023-05-10T03:27:52;47.57;;;26.33;;
12271;SDS011;6198;51.446;6.698;2023-05-10T03:30:18;45.20;;;25.27;;
12271;SDS011;6198;51.446;6.698;2023-05-10T03:32:45;49.00;;;26.17;;
12271;SDS011;6198;51.446;6.698;2023-05-10T03:35:11;45.63;;;25.07;;
12271;SDS011;6198;51.446;6.698;2023-05-10T03:37:38;46.90;;;25.07;;
12271;SDS011;6198;51.446;6.698;2023-05-10T03:40:04;43.63;;;25.70;;
12271;SDS011;6198;51.446;6.698;2023-05-10T03:42:30;47.70;;;26.43;;
12271;SDS011;6198;51.446;6.698;2023-05-10T03:44:56;49.67;;;27.93;;
12271;SDS011;6198;51.446;6.698;2023-05-10T03:47:22;54.13;;;27.63;;
12271;SDS011;6198;51.446;6.698;2023-05-10T03:49:48;54.40;;;28.03;;
12271;SDS011;6198;51.446;6.698;2023-05-10T03:52:14;50.13;;;26.83;;
12271;SDS011;6198;51.446;6.698;2023-05-10T03:54:40;51.97;;;26.07;;
12271;SDS011;6198;51.446;6.698;2023-05-10T03:57:06;47.70;;;27.63;;
12271;SDS011;6198;51.446;6.698;2023-05-10T03:59:32;46.53;;;25.67;;
12271;SDS011;6198;51.446;6.698;2023-05-10T04:01:58;50.97;;;27.63;;
12271;SDS011;6198;51.446;6.698;2023-05-10T04:04:24;52.77;;;28.03;;
12271;SDS011;6198;51.446;6.698;2023-05-10T04:06:50;50.47;;;27.33;;
12271;SDS011;6198;51.446;6.698;2023-05-10T04:09:16;51.90;;;27.83;;
12271;SDS011;6198;51.446;6.698;2023-05-10T04:11:42;53.47;;;27.27;;
12271;SDS011;6198;51.446;6.698;2023-05-10T04:14:08;49.93;;;27.10;;
12271;SDS011;6198;51.446;6.698;2023-05-10T04:16:34;51.33;;;28.03;;
12271;SDS011;6198;51.446;6.698;2023-05-10T04:19:00;57.70;;;27.23;;
12271;SDS011;6198;51.446;6.698;2023-05-10T04:21:26;50.60;;;28.33;;
12271;SDS011;6198;51.446;6.698;2023-05-10T04:23:52;59.83;;;29.57;;
12271;SDS011;6198;51.446;6.698;2023-05-10T04:26:18;55.63;;;29.43;;
12271;SDS011;6198;51.446;6.698;2023-05-10T04:28:45;57.70;;;29.70;;
12271;SDS011;6198;51.446;6.698;2023-05-10T04:31:11;59.97;;;32.27;;
12271;SDS011;6198;51.446;6.698;2023-05-10T04:33:37;63.17;;;32.57;;
12271;SDS011;6198;51.446;6.698;2023-05-10T04:36:03;61.50;;;31.53;;
12271;SDS011;6198;51.446;6.698;2023-05-10T04:38:29;64.93;;;32.73;;
12271;SDS011;6198;51.446;6.698;2023-05-10T04:41:03;66.33;;;33.27;;
12271;SDS011;6198;51.446;6.698;2023-05-10T04:43:29;67.53;;;35.93;;
12271;SDS011;6198;51.446;6.698;2023-05-10T04:45:58;71.87;;;36.20;;
12271;SDS011;6198;51.446;6.698;2023-05-10T04:48:24;70.83;;;36.23;;
12271;SDS011;6198;51.446;6.698;2023-05-10T04:50:50;74.27;;;37.40;;
12271;SDS011;6198;51.446;6.698;2023-05-10T04:53:16;79.27;;;38.77;;
12271;SDS011;6198;51.446;6.698;2023-05-10T04:55:42;78.67;;;39.23;;
12271;SDS011;6198;51.446;6.698;2023-05-10T04:58:08;81.83;;;40.53;;
12271;SDS011;6198;51.446;6.698;2023-05-10T05:00:34;79.03;;;39.60;;
12271;SDS011;6198;51.446;6.698;2023-05-10T05:03:00;87.70;;;40.50;;
12271;SDS011;6198;51.446;6.698;2023-05-10T05:05:26;81.40;;;41.27;;
12271;SDS011;6198;51.446;6.698;2023-05-10T05:07:52;80.20;;;41.63;;
12271;SDS011;6198;51.446;6.698;2023-05-10T05:10:18;84.60;;;42.67;;
12271;SDS011;6198;51.446;6.698;2023-05-10T05:12:44;82.57;;;41.67;;
12271;SDS011;6198;51.446;6.698;2023-05-10T05:15:10;80.97;;;42.30;;
12271;SDS011;6198;51.446;6.698;2023-05-10T05:17:36;79.60;;;42.63;;
12271;SDS011;6198;51.446;6.698;2023-05-10T05:20:02;81.93;;;42.27;;
12271;SDS011;6198;51.446;6.698;2023-05-10T05:22:28;75.43;;;41.73;;
12271;SDS011;6198;51.446;6.698;2023-05-10T05:24:55;79.97;;;43.90;;
12271;SDS011;6198;51.446;6.698;2023-05-10T05:27:21;80.80;;;43.03;;
12271;SDS011;6198;51.446;6.698;2023-05-10T05:29:49;82.00;;;42.53;;
12271;SDS011;6198;51.446;6.698;2023-05-10T05:32:16;80.30;;;42.73;;
12271;SDS011;6198;51.446;6.698;2023-05-10T05:34:44;81.23;;;44.50;;
12271;SDS011;6198;51.446;6.698;2023-05-10T05:37:13;77.03;;;42.07;;
12271;SDS011;6198;51.446;6.698;2023-05-10T05:39:39;80.87;;;44.13;;
12271;SDS011;6198;51.446;6.698;2023-05-10T05:42:05;83.40;;;44.90;;
12271;SDS011;6198;51.446;6.698;2023-05-10T05:44:31;83.07;;;45.77;;
12271;SDS011;6198;51.446;6.698;2023-05-10T05:46:57;83.27;;;46.47;;
12271;SDS011;6198;51.446;6.698;2023-05-10T05:49:23;83.50;;;46.60;;
12271;SDS011;6198;51.446;6.698;2023-05-10T05:51:49;92.13;;;47.53;;
12271;SDS011;6198;51.446;6.698;2023-05-10T05:54:15;84.30;;;47.07;;
12271;SDS011;6198;51.446;6.698;2023-05-10T05:56:41;85.07;;;45.20;;
12271;SDS011;6198;51.446;6.698;2023-05-10T05:59:09;82.37;;;47.40;;
12271;SDS011;6198;51.446;6.698;2023-05-10T06:01:35;84.47;;;46.47;;
12271;SDS011;6198;51.446;6.698;2023-05-10T06:04:01;79.80;;;45.23;;
12271;SDS011;6198;51.446;6.698;2023-05-10T06:06:27;81.73;;;45.93;;
12271;SDS011;6198;51.446;6.698;2023-05-10T06:08:53;82.03;;;44.87;;
12271;SDS011;6198;51.446;6.698;2023-05-10T06:11:18;84.77;;;45.80;;
12271;SDS011;6198;51.446;6.698;2023-05-10T06:13:45;83.40;;;45.37;;
12271;SDS011;6198;51.446;6.698;2023-05-10T06:16:12;91.27;;;46.47;;
12271;SDS011;6198;51.446;6.698;2023-05-10T06:18:38;90.73;;;46.50;;
12271;SDS011;6198;51.446;6.698;2023-05-10T06:21:04;84.53;;;45.23;;
12271;SDS011;6198;51.446;6.698;2023-05-10T06:23:30;91.83;;;47.70;;
12271;SDS011;6198;51.446;6.698;2023-05-10T06:25:56;92.27;;;48.00;;
12271;SDS011;6198;51.446;6.698;2023-05-10T06:28:22;92.37;;;47.23;;
12271;SDS011;6198;51.446;6.698;2023-05-10T06:30:48;93.83;;;46.57;;
12271;SDS011;6198;51.446;6.698;2023-05-10T06:33:14;93.60;;;48.63;;
12271;SDS011;6198;51.446;6.698;2023-05-10T06:35:40;90.60;;;48.23;;
12271;SDS011;6198;51.446;6.698;2023-05-10T06:38:06;93.70;;;49.03;;
12271;SDS011;6198;51.446;6.698;2023-05-10T06:40:32;88.07;;;45.77;;
12271;SDS011;6198;51.446;6.698;2023-05-10T06:42:58;89.30;;;47.57;;
12271;SDS011;6198;51.446;6.698;2023-05-10T06:45:24;93.37;;;46.87;;
12271;SDS011;6198;51.446;6.698;2023-05-10T06:47:50;88.17;;;45.67;;
12271;SDS011;6198;51.446;6.698;2023-05-10T06:50:16;88.50;;;47.20;;
12271;SDS011;6198;51.446;6.698;2023-05-10T06:52:42;90.80;;;47.97;;
12271;SDS011;6198;51.446;6.698;2023-05-10T06:55:08;85.93;;;46.73;;
12271;SDS011;6198;51.446;6.698;2023-05-10T06:57:34;83.97;;;46.97;;
12271;SDS011;6198;51.446;6.698;2023-05-10T07:00:00;87.87;;;44.70;;
12271;SDS011;6198;51.446;6.698;2023-05-10T07:02:28;83.10;;;45.10;;
12271;SDS011;6198;51.446;6.698;2023-05-10T07:04:54;84.03;;;45.60;;
12271;SDS011;6198;51.446;6.698;2023-05-10T07:07:21;81.87;;;43.93;;
12271;SDS011;6198;51.446;6.698;2023-05-10T07:09:47;79.83;;;44.70;;
12271;SDS011;6198;51.446;6.698;2023-05-10T07:12:14;73.80;;;41.37;;
12271;SDS011;6198;51.446;6.698;2023-05-10T07:14:40;75.27;;;41.43;;
12271;SDS011;6198;51.446;6.698;2023-05-10T07:17:06;74.23;;;41.27;;
12271;SDS011;6198;51.446;6.698;2023-05-10T07:19:32;72.60;;;39.97;;
12271;SDS011;6198;51.446;6.698;2023-05-10T07:21:58;69.43;;;38.00;;
12271;SDS011;6198;51.446;6.698;2023-05-10T07:24:24;77.07;;;39.73;;
12271;SDS011;6198;51.446;6.698;2023-05-10T07:26:50;76.03;;;41.40;;
12271;SDS011;6198;51.446;6.698;2023-05-10T07:29:16;76.50;;;39.90;;
12271;SDS011;6198;51.446;6.698;2023-05-10T07:31:42;73.97;;;39.77;;
12271;SDS011;6198;51.446;6.698;2023-05-10T07:34:08;74.50;;;38.60;;
12271;SDS011;6198;51.446;6.698;2023-05-10T07:36:34;67.13;;;36.80;;
12271;SDS011;6198;51.446;6.698;2023-05-10T07:39:00;65.57;;;38.67;;
12271;SDS011;6198;51.446;6.698;2023-05-10T07:41:27;53.23;;;34.23;;
12271;SDS011;6198;51.446;6.698;2023-05-10T07:43:54;61.43;;;35.27;;
12271;SDS011;6198;51.446;6.698;2023-05-10T07:46:20;57.63;;;36.13;;
12271;SDS011;6198;51.446;6.698;2023-05-10T07:48:45;55.40;;;35.03;;
12271;SDS011;6198;51.446;6.698;2023-05-10T07:51:11;57.57;;;37.23;;
12271;SDS011;6198;51.446;6.698;2023-05-10T07:53:37;53.93;;;35.47;;
12271;SDS011;6198;51.446;6.698;2023-05-10T07:59:09;52.33;;;34.40;;
12271;SDS011;6198;51.446;6.698;2023-05-10T08:01:35;53.73;;;34.73;;
12271;SDS011;6198;51.446;6.698;2023-05-10T08:04:01;54.93;;;35.47;;
12271;SDS011;6198;51.446;6.698;2023-05-10T08:06:27;52.00;;;33.83;;
12271;SDS011;6198;51.446;6.698;2023-05-10T08:08:54;55.17;;;34.53;;
12271;SDS011;6198;51.446;6.698;2023-05-10T08:11:20;56.87;;;36.07;;
12271;SDS011;6198;51.446;6.698;2023-05-10T08:13:47;51.90;;;34.53;;
12271;SDS011;6198;51.446;6.698;2023-05-10T08:16:13;56.93;;;34.80;;
12271;SDS011;6198;51.446;6.698;2023-05-10T08:18:39;52.80;;;35.80;;
12271;SDS011;6198;51.446;6.698;2023-05-10T08:21:05;54.13;;;33.97;;
12271;SDS011;6198;51.446;6.698;2023-05-10T08:23:31;49.20;;;33.53;;
12271;SDS011;6198;51.446;6.698;2023-05-10T08:25:58;53.17;;;33.30;;
12271;SDS011;6198;51.446;6.698;2023-05-10T08:28:24;45.17;;;31.17;;
12271;SDS011;6198;51.446;6.698;2023-05-10T08:30:50;41.13;;;29.80;;
12271;SDS011;6198;51.446;6.698;2023-05-10T08:33:17;41.00;;;29.37;;
12271;SDS011;6198;51.446;6.698;2023-05-10T08:35:43;41.60;;;30.00;;
12271;SDS011;6198;51.446;6.698;2023-05-10T08:38:09;43.83;;;29.20;;
12271;SDS011;6198;51.446;6.698;2023-05-10T08:40:36;44.70;;;29.90;;
12271;SDS011;6198;51.446;6.698;2023-05-10T08:45:28;40.43;;;28.73;;
12271;SDS011;6198;51.446;6.698;2023-05-10T08:47:57;40.40;;;29.00;;
12271;SDS011;6198;51.446;6.698;2023-05-10T08:50:24;46.97;;;31.67;;
12271;SDS011;6198;51.446;6.698;2023-05-10T08:52:50;40.17;;;29.57;;
12271;SDS011;6198;51.446;6.698;2023-05-10T08:55:18;39.43;;;29.27;;
12271;SDS011;6198;51.446;6.698;2023-05-10T08:57:44;35.73;;;26.50;;
12271;SDS011;6198;51.446;6.698;2023-05-10T09:00:10;31.40;;;24.87;;
12271;SDS011;6198;51.446;6.698;2023-05-10T09:02:36;34.47;;;23.60;;
12271;SDS011;6198;51.446;6.698;2023-05-10T09:05:03;27.63;;;21.93;;
12271;SDS011;6198;51.446;6.698;2023-05-10T09:07:29;27.87;;;20.70;;
12271;SDS011;6198;51.446;6.698;2023-05-10T09:09:55;30.17;;;22.23;;
12271;SDS011;6198;51.446;6.698;2023-05-10T09:12:22;26.87;;;20.70;;
12271;SDS011;6198;51.446;6.698;2023-05-10T09:14:48;25.03;;;19.13;;
12271;SDS011;6198;51.446;6.698;2023-05-10T09:17:16;25.43;;;20.63;;
12271;SDS011;6198;51.446;6.698;2023-05-10T09:19:42;28.63;;;20.07;;
12271;SDS011;6198;51.446;6.698;2023-05-10T09:22:08;32.60;;;22.13;;
12271;SDS011;6198;51.446;6.698;2023-05-10T09:24:34;28.00;;;20.23;;
12271;SDS011;6198;51.446;6.698;2023-05-10T09:27:01;27.77;;;20.37;;
12271;SDS011;6198;51.446;6.698;2023-05-10T09:29:38;24.17;;;19.50;;
12271;SDS011;6198;51.446;6.698;2023-05-10T09:32:04;24.03;;;19.30;;
12271;SDS011;6198;51.446;6.698;2023-05-10T09:34:31;23.53;;;19.23;;
12271;SDS011;6198;51.446;6.698;2023-05-10T09:36:59;25.00;;;20.97;;
12271;SDS011;6198;51.446;6.698;2023-05-10T09:41:58;25.73;;;21.67;;
12271;SDS011;6198;51.446;6.698;2023-05-10T09:44:26;29.03;;;22.70;;
12271;SDS011;6198;51.446;6.698;2023-05-10T09:46:52;29.13;;;22.50;;
12271;SDS011;6198;51.446;6.698;2023-05-10T09:49:18;29.97;;;22.50;;
12271;SDS011;6198;51.446;6.698;2023-05-10T09:51:44;27.07;;;21.63;;
12271;SDS011;6198;51.446;6.698;2023-05-10T09:54:11;30.97;;;23.40;;
12271;SDS011;6198;51.446;6.698;2023-05-10T09:56:38;36.43;;;23.73;;
12271;SDS011;6198;51.446;6.698;2023-05-10T09:59:06;31.07;;;23.57;;
12271;SDS011;6198;51.446;6.698;2023-05-10T10:01:32;32.33;;;23.50;;
12271;SDS011;6198;51.446;6.698;2023-05-10T10:03:58;29.73;;;22.97;;
12271;SDS011;6198;51.446;6.698;2023-05-10T10:06:24;36.50;;;23.00;;
12271;SDS011;6198;51.446;6.698;2023-05-10T10:08:50;31.83;;;23.07;;
12271;SDS011;6198;51.446;6.698;2023-05-10T10:11:17;27.20;;;22.50;;
12271;SDS011;6198;51.446;6.698;2023-05-10T10:13:43;27.23;;;21.30;;
12271;SDS011;6198;51.446;6.698;2023-05-10T10:16:08;26.43;;;20.93;;
12271;SDS011;6198;51.446;6.698;2023-05-10T10:18:35;27.13;;;21.47;;
12271;SDS011;6198;51.446;6.698;2023-05-10T10:21:07;27.83;;;20.77;;
12271;SDS011;6198;51.446;6.698;2023-05-10T10:23:36;25.07;;;20.80;;
12271;SDS011;6198;51.446;6.698;2023-05-10T10:26:03;28.70;;;21.60;;
12271;SDS011;6198;51.446;6.698;2023-05-10T10:28:40;26.83;;;22.23;;
12271;SDS011;6198;51.446;6.698;2023-05-10T10:34:00;28.87;;;21.83;;
12271;SDS011;6198;51.446;6.698;2023-05-10T10:36:27;32.97;;;22.83;;
12271;SDS011;6198;51.446;6.698;2023-05-10T10:46:58;31.10;;;25.43;;
12271;SDS011;6198;51.446;6.698;2023-05-10T10:49:24;28.40;;;24.60;;
12271;SDS011;6198;51.446;6.698;2023-05-10T10:52:32;30.43;;;24.83;;
12271;SDS011;6198;51.446;6.698;2023-05-10T10:54:47;30.10;;;24.40;;
12271;SDS011;6198;51.446;6.698;2023-05-10T10:57:17;28.27;;;22.27;;
12271;SDS011;6198;51.446;6.698;2023-05-10T10:59:43;27.60;;;22.30;;
12271;SDS011;6198;51.446;6.698;2023-05-10T11:02:10;26.27;;;21.63;;
12271;SDS011;6198;51.446;6.698;2023-05-10T11:04:56;24.77;;;20.73;;
12271;SDS011;6198;51.446;6.698;2023-05-10T11:07:22;22.17;;;18.77;;
12271;SDS011;6198;51.446;6.698;2023-05-10T11:09:48;22.70;;;18.90;;
12271;SDS011;6198;51.446;6.698;2023-05-10T11:12:14;22.60;;;19.07;;
12271;SDS011;6198;51.446;6.698;2023-05-10T11:14:40;21.97;;;18.73;;
12271;SDS011;6198;51.446;6.698;2023-05-10T11:17:22;22.13;;;17.13;;
12271;SDS011;6198;51.446;6.698;2023-05-10T11:22:50;21.40;;;17.23;;
12271;SDS011;6198;51.446;6.698;2023-05-10T11:25:16;20.63;;;18.33;;
12271;SDS011;6198;51.446;6.698;2023-05-10T11:27:42;20.80;;;17.57;;
12271;SDS011;6198;51.446;6.698;2023-05-10T11:30:11;20.23;;;17.30;;
12271;SDS011;6198;51.446;6.698;2023-05-10T11:32:39;20.10;;;17.97;;
12271;SDS011;6198;51.446;6.698;2023-05-10T11:35:09;20.40;;;16.57;;
12271;SDS011;6198;51.446;6.698;2023-05-10T11:37:35;16.83;;;15.03;;
12271;SDS011;6198;51.446;6.698;2023-05-10T11:40:03;18.70;;;14.50;;
12271;SDS011;6198;51.446;6.698;2023-05-10T11:42:29;14.30;;;12.53;;
12271;SDS011;6198;51.446;6.698;2023-05-10T11:44:55;15.37;;;12.97;;
12271;SDS011;6198;51.446;6.698;2023-05-10T11:47:21;17.37;;;12.33;;
12271;SDS011;6198;51.446;6.698;2023-05-10T11:49:47;14.73;;;12.10;;
12271;SDS011;6198;51.446;6.698;2023-05-10T11:52:13;13.83;;;12.30;;
12271;SDS011;6198;51.446;6.698;2023-05-10T11:54:50;14.30;;;12.13;;
12271;SDS011;6198;51.446;6.698;2023-05-10T11:57:18;13.97;;;11.53;;
12271;SDS011;6198;51.446;6.698;2023-05-10T11:59:45;14.87;;;12.03;;
12271;SDS011;6198;51.446;6.698;2023-05-10T12:02:11;16.53;;;11.93;;
12271;SDS011;6198;51.446;6.698;2023-05-10T12:04:37;13.93;;;11.03;;
12271;SDS011;6198;51.446;6.698;2023-05-10T12:07:03;12.73;;;11.17;;
12271;SDS011;6198;51.446;6.698;2023-05-10T12:09:29;12.17;;;10.47;;
12271;SDS011;6198;51.446;6.698;2023-05-10T12:11:55;12.63;;;10.53;;
12271;SDS011;6198;51.446;6.698;2023-05-10T12:14:24;13.33;;;10.20;;
12271;SDS011;6198;51.446;6.698;2023-05-10T12:16:50;11.37;;;9.13;;
12271;SDS011;6198;51.446;6.698;2023-05-10T12:19:19;12.27;;;10.23;;
12271;SDS011;6198;51.446;6.698;2023-05-10T12:21:46;11.87;;;10.63;;
12271;SDS011;6198;51.446;6.698;2023-05-10T12:24:12;11.60;;;9.90;;
12271;SDS011;6198;51.446;6.698;2023-05-10T12:26:41;12.17;;;10.33;;
12271;SDS011;6198;51.446;6.698;2023-05-10T12:29:17;11.57;;;10.43;;
12271;SDS011;6198;51.446;6.698;2023-05-10T12:31:51;11.03;;;9.93;;
12271;SDS011;6198;51.446;6.698;2023-05-10T12:34:26;10.43;;;9.33;;
12271;SDS011;6198;51.446;6.698;2023-05-10T12:36:55;11.87;;;10.37;;
12271;SDS011;6198;51.446;6.698;2023-05-10T12:39:21;10.67;;;9.47;;
12271;SDS011;6198;51.446;6.698;2023-05-10T12:41:47;10.10;;;9.17;;
12271;SDS011;6198;51.446;6.698;2023-05-10T12:44:13;11.70;;;9.97;;
12271;SDS011;6198;51.446;6.698;2023-05-10T12:46:39;10.13;;;9.03;;
12271;SDS011;6198;51.446;6.698;2023-05-10T12:49:05;10.63;;;9.27;;
12271;SDS011;6198;51.446;6.698;2023-05-10T12:51:31;10.97;;;8.57;;
12271;SDS011;6198;51.446;6.698;2023-05-10T12:53:57;8.53;;;7.73;;
12271;SDS011;6198;51.446;6.698;2023-05-10T12:56:23;11.03;;;9.03;;
12271;SDS011;6198;51.446;6.698;2023-05-10T12:58:49;9.30;;;8.10;;
12271;SDS011;6198;51.446;6.698;2023-05-10T13:01:15;11.30;;;7.90;;
12271;SDS011;6198;51.446;6.698;2023-05-10T13:03:42;8.57;;;7.70;;
12271;SDS011;6198;51.446;6.698;2023-05-10T13:06:08;11.00;;;7.60;;
12271;SDS011;6198;51.446;6.698;2023-05-10T13:08:34;10.07;;;7.80;;
12271;SDS011;6198;51.446;6.698;2023-05-10T13:11:00;9.43;;;7.13;;
12271;SDS011;6198;51.446;6.698;2023-05-10T13:13:26;10.00;;;7.17;;
12271;SDS011;6198;51.446;6.698;2023-05-10T13:15:52;7.63;;;6.37;;
12271;SDS011;6198;51.446;6.698;2023-05-10T13:18:18;10.87;;;7.57;;
12271;SDS011;6198;51.446;6.698;2023-05-10T13:20:44;9.07;;;7.70;;
12271;SDS011;6198;51.446;6.698;2023-05-10T13:23:10;9.27;;;7.63;;
12271;SDS011;6198;51.446;6.698;2023-05-10T13:25:36;8.80;;;7.43;;
12271;SDS011;6198;51.446;6.698;2023-05-10T13:28:02;9.57;;;8.63;;
12271;SDS011;6198;51.446;6.698;2023-05-10T13:30:28;8.60;;;7.90;;
12271;SDS011;6198;51.446;6.698;2023-05-10T13:32:54;8.17;;;7.33;;
12271;SDS011;6198;51.446;6.698;2023-05-10T13:35:20;10.27;;;8.40;;
12271;SDS011;6198;51.446;6.698;2023-05-10T13:37:46;9.60;;;8.53;;
12271;SDS011;6198;51.446;6.698;2023-05-10T13:40:12;12.30;;;11.00;;
12271;SDS011;6198;51.446;6.698;2023-05-10T13:42:40;11.07;;;9.97;;
12271;SDS011;6198;51.446;6.698;2023-05-10T13:45:06;11.60;;;10.50;;
12271;SDS011;6198;51.446;6.698;2023-05-10T13:47:32;10.97;;;9.97;;
12271;SDS011;6198;51.446;6.698;2023-05-10T13:52:24;12.90;;;11.60;;
12271;SDS011;6198;51.446;6.698;2023-05-10T13:54:50;11.03;;;10.03;;
12271;SDS011;6198;51.446;6.698;2023-05-10T13:57:17;12.10;;;10.90;;
12271;SDS011;6198;51.446;6.698;2023-05-10T13:59:43;10.20;;;8.93;;
12271;SDS011;6198;51.446;6.698;2023-05-10T14:02:09;11.10;;;9.90;;
12271;SDS011;6198;51.446;6.698;2023-05-10T14:04:38;9.30;;;8.40;;
12271;SDS011;6198;51.446;6.698;2023-05-10T14:07:04;11.67;;;10.47;;
12271;SDS011;6198;51.446;6.698;2023-05-10T14:09:30;11.87;;;10.67;;
12271;SDS011;6198;51.446;6.698;2023-05-10T14:11:56;14.53;;;12.60;;
12271;SDS011;6198;51.446;6.698;2023-05-10T14:14:22;12.60;;;11.37;;
12271;SDS011;6198;51.446;6.698;2023-05-10T14:16:48;10.70;;;9.70;;
12271;SDS011;6198;51.446;6.698;2023-05-10T14:19:14;10.63;;;9.53;;
12271;SDS011;6198;51.446;6.698;2023-05-10T14:21:40;11.33;;;10.23;;
12271;SDS011;6198;51.446;6.698;2023-05-10T14:24:06;11.57;;;10.47;;
12271;SDS011;6198;51.446;6.698;2023-05-10T14:26:32;11.73;;;10.63;;
12271;SDS011;6198;51.446;6.698;2023-05-10T14:28:59;12.57;;;11.30;;
12271;SDS011;6198;51.446;6.698;2023-05-10T14:31:25;13.77;;;11.70;;
12271;SDS011;6198;51.446;6.698;2023-05-10T14:33:51;13.30;;;11.77;;
12271;SDS011;6198;51.446;6.698;2023-05-10T14:36:17;14.50;;;13.20;;
12271;SDS011;6198;51.446;6.698;2023-05-10T14:38:43;17.07;;;14.33;;
12271;SDS011;6198;51.446;6.698;2023-05-10T14:41:09;18.10;;;16.20;;
12271;SDS011;6198;51.446;6.698;2023-05-10T14:43:39;18.50;;;16.47;;
12271;SDS011;6198;51.446;6.698;2023-05-10T14:46:04;17.87;;;15.97;;
12271;SDS011;6198;51.446;6.698;2023-05-10T14:48:31;18.03;;;16.23;;
12271;SDS011;6198;51.446;6.698;2023-05-10T14:50:57;19.73;;;16.73;;
12271;SDS011;6198;51.446;6.698;2023-05-10T14:53:23;18.00;;;15.23;;
12271;SDS011;6198;51.446;6.698;2023-05-10T14:55:49;18.60;;;16.70;;
12271;SDS011;6198;51.446;6.698;2023-05-10T14:58:15;16.93;;;15.23;;
12271;SDS011;6198;51.446;6.698;2023-05-10T15:00:41;18.10;;;16.17;;
12271;SDS011;6198;51.446;6.698;2023-05-10T15:03:08;19.40;;;14.97;;
12271;SDS011;6198;51.446;6.698;2023-05-10T15:05:34;16.90;;;15.07;;
12271;SDS011;6198;51.446;6.698;2023-05-10T15:08:02;17.37;;;15.53;;
12271;SDS011;6198;51.446;6.698;2023-05-10T15:10:28;16.00;;;14.33;;
12271;SDS011;6198;51.446;6.698;2023-05-10T15:12:54;15.90;;;13.03;;
12271;SDS011;6198;51.446;6.698;2023-05-10T15:15:20;14.30;;;10.70;;
12271;SDS011;6198;51.446;6.698;2023-05-10T15:17:47;7.63;;;6.93;;
12271;SDS011;6198;51.446;6.698;2023-05-10T15:20:13;3.10;;;2.80;;